sensor_id;sensor_type;location;lat;lon;timestamp;P1;durP1;ratioP1;P2;durP2;ratioP2
12385;SDS011;6257;57.634;18.310;2022-12-11T00:00:13;1.40;;;1.30;;
12385;SDS011;6257;57.634;18.310;2022-12-11T00:02:41;2.20;;;1.50;;
12385;SDS011;6257;57.634;18.310;2022-12-11T00:05:10;1.63;;;1.50;;
12385;SDS011;6257;57.634;18.310;2022-12-11T00:07:37;1.40;;;1.30;;
12385;SDS011;6257;57.634;18.310;2022-12-11T00:10:05;2.33;;;1.60;;
12385;SDS011;6257;57.634;18.310;2022-12-11T00:12:33;2.83;;;1.87;;
12385;SDS011;6257;57.634;18.310;2022-12-11T00:15:00;1.73;;;1.50;;
12385;SDS011;6257;57.634;18.310;2022-12-11T00:17:28;1.83;;;1.30;;
12385;SDS011;6257;57.634;18.310;2022-12-11T00:19:55;1.93;;;1.30;;
12385;SDS011;6257;57.634;18.310;2022-12-11T00:22:23;1.77;;;1.30;;
12385;SDS011;6257;57.634;18.310;2022-12-11T00:24:51;2.93;;;1.60;;
12385;SDS011;6257;57.634;18.310;2022-12-11T00:27:18;3.30;;;1.90;;
12385;SDS011;6257;57.634;18.310;2022-12-11T00:29:45;1.77;;;1.63;;
12385;SDS011;6257;57.634;18.310;2022-12-11T00:32:12;2.70;;;1.60;;
12385;SDS011;6257;57.634;18.310;2022-12-11T00:34:39;2.30;;;1.50;;
12385;SDS011;6257;57.634;18.310;2022-12-11T00:37:07;2.30;;;1.53;;
12385;SDS011;6257;57.634;18.310;2022-12-11T00:39:37;1.53;;;1.30;;
12385;SDS011;6257;57.634;18.310;2022-12-11T00:42:05;2.13;;;1.50;;
12385;SDS011;6257;57.634;18.310;2022-12-11T00:44:32;1.67;;;1.40;;
12385;SDS011;6257;57.634;18.310;2022-12-11T00:47:00;1.70;;;1.20;;
12385;SDS011;6257;57.634;18.310;2022-12-11T00:49:27;1.73;;;1.23;;
12385;SDS011;6257;57.634;18.310;2022-12-11T00:51:55;1.50;;;1.20;;
12385;SDS011;6257;57.634;18.310;2022-12-11T00:54:22;1.80;;;1.20;;
12385;SDS011;6257;57.634;18.310;2022-12-11T00:56:50;1.83;;;1.40;;
12385;SDS011;6257;57.634;18.310;2022-12-11T00:59:18;2.10;;;1.60;;
12385;SDS011;6257;57.634;18.310;2022-12-11T01:01:45;2.30;;;1.47;;
12385;SDS011;6257;57.634;18.310;2022-12-11T01:04:12;3.43;;;1.30;;
12385;SDS011;6257;57.634;18.310;2022-12-11T01:06:40;1.67;;;1.40;;
12385;SDS011;6257;57.634;18.310;2022-12-11T01:09:07;1.63;;;1.30;;
12385;SDS011;6257;57.634;18.310;2022-12-11T01:11:53;3.10;;;1.87;;
12385;SDS011;6257;57.634;18.310;2022-12-11T01:14:20;1.87;;;1.40;;
12385;SDS011;6257;57.634;18.310;2022-12-11T01:16:47;2.40;;;1.20;;
12385;SDS011;6257;57.634;18.310;2022-12-11T01:19:15;2.03;;;1.10;;
12385;SDS011;6257;57.634;18.310;2022-12-11T01:21:42;2.13;;;1.27;;
12385;SDS011;6257;57.634;18.310;2022-12-11T01:24:09;1.60;;;1.23;;
12385;SDS011;6257;57.634;18.310;2022-12-11T01:26:36;1.57;;;1.33;;
12385;SDS011;6257;57.634;18.310;2022-12-11T01:29:05;1.53;;;1.30;;
12385;SDS011;6257;57.634;18.310;2022-12-11T01:31:32;2.10;;;1.50;;
12385;SDS011;6257;57.634;18.310;2022-12-11T01:33:59;2.47;;;1.27;;
12385;SDS011;6257;57.634;18.310;2022-12-11T01:36:26;1.70;;;1.20;;
12385;SDS011;6257;57.634;18.310;2022-12-11T01:38:54;1.30;;;1.13;;
12385;SDS011;6257;57.634;18.310;2022-12-11T01:41:22;1.67;;;1.40;;
12385;SDS011;6257;57.634;18.310;2022-12-11T01:43:56;1.40;;;1.10;;
12385;SDS011;6257;57.634;18.310;2022-12-11T01:46:30;2.70;;;1.10;;
12385;SDS011;6257;57.634;18.310;2022-12-11T01:48:58;1.93;;;1.10;;
12385;SDS011;6257;57.634;18.310;2022-12-11T01:51:27;1.20;;;1.00;;
12385;SDS011;6257;57.634;18.310;2022-12-11T01:53:57;1.27;;;1.10;;
12385;SDS011;6257;57.634;18.310;2022-12-11T01:56:28;1.20;;;1.10;;
12385;SDS011;6257;57.634;18.310;2022-12-11T01:58:58;1.40;;;1.10;;
12385;SDS011;6257;57.634;18.310;2022-12-11T02:01:34;1.30;;;1.17;;
12385;SDS011;6257;57.634;18.310;2022-12-11T02:04:04;1.50;;;1.13;;
12385;SDS011;6257;57.634;18.310;2022-12-11T02:06:34;1.10;;;1.00;;
12385;SDS011;6257;57.634;18.310;2022-12-11T02:09:03;1.17;;;0.90;;
12385;SDS011;6257;57.634;18.310;2022-12-11T02:11:34;1.47;;;0.93;;
12385;SDS011;6257;57.634;18.310;2022-12-11T02:14:12;1.87;;;1.17;;
12385;SDS011;6257;57.634;18.310;2022-12-11T02:16:48;1.10;;;0.90;;
12385;SDS011;6257;57.634;18.310;2022-12-11T02:19:28;1.00;;;0.90;;
12385;SDS011;6257;57.634;18.310;2022-12-11T02:22:10;1.43;;;0.90;;
12385;SDS011;6257;57.634;18.310;2022-12-11T02:24:46;1.20;;;1.10;;
12385;SDS011;6257;57.634;18.310;2022-12-11T02:27:26;1.10;;;0.97;;
12385;SDS011;6257;57.634;18.310;2022-12-11T02:30:03;1.43;;;1.13;;
12385;SDS011;6257;57.634;18.310;2022-12-11T02:32:34;1.50;;;1.13;;
12385;SDS011;6257;57.634;18.310;2022-12-11T02:35:06;1.33;;;1.00;;
12385;SDS011;6257;57.634;18.310;2022-12-11T02:37:38;1.40;;;1.10;;
12385;SDS011;6257;57.634;18.310;2022-12-11T02:40:09;1.60;;;1.10;;
12385;SDS011;6257;57.634;18.310;2022-12-11T02:42:39;2.10;;;1.00;;
12385;SDS011;6257;57.634;18.310;2022-12-11T02:45:11;2.00;;;0.97;;
12385;SDS011;6257;57.634;18.310;2022-12-11T02:47:39;1.20;;;1.00;;
12385;SDS011;6257;57.634;18.310;2022-12-11T02:50:10;2.17;;;1.10;;
12385;SDS011;6257;57.634;18.310;2022-12-11T02:52:42;1.30;;;0.90;;
12385;SDS011;6257;57.634;18.310;2022-12-11T02:55:11;1.37;;;1.10;;
12385;SDS011;6257;57.634;18.310;2022-12-11T02:57:42;3.00;;;1.07;;
12385;SDS011;6257;57.634;18.310;2022-12-11T03:00:14;1.00;;;0.90;;
12385;SDS011;6257;57.634;18.310;2022-12-11T03:02:42;1.37;;;1.10;;
12385;SDS011;6257;57.634;18.310;2022-12-11T03:05:12;1.70;;;1.20;;
12385;SDS011;6257;57.634;18.310;2022-12-11T03:07:40;3.20;;;1.47;;
12385;SDS011;6257;57.634;18.310;2022-12-11T03:10:09;1.13;;;0.97;;
12385;SDS011;6257;57.634;18.310;2022-12-11T03:12:40;1.90;;;1.20;;
12385;SDS011;6257;57.634;18.310;2022-12-11T03:15:10;3.17;;;1.60;;
12385;SDS011;6257;57.634;18.310;2022-12-11T03:17:43;1.43;;;1.10;;
12385;SDS011;6257;57.634;18.310;2022-12-11T03:20:20;1.40;;;1.10;;
12385;SDS011;6257;57.634;18.310;2022-12-11T03:22:56;1.13;;;0.90;;
12385;SDS011;6257;57.634;18.310;2022-12-11T03:25:31;2.50;;;1.10;;
12385;SDS011;6257;57.634;18.310;2022-12-11T03:28:05;2.37;;;1.40;;
12385;SDS011;6257;57.634;18.310;2022-12-11T03:30:37;2.27;;;1.40;;
12385;SDS011;6257;57.634;18.310;2022-12-11T03:33:08;1.33;;;1.13;;
12385;SDS011;6257;57.634;18.310;2022-12-11T03:35:38;1.30;;;1.10;;
12385;SDS011;6257;57.634;18.310;2022-12-11T03:38:10;1.53;;;1.17;;
12385;SDS011;6257;57.634;18.310;2022-12-11T03:40:39;1.10;;;1.00;;
12385;SDS011;6257;57.634;18.310;2022-12-11T03:43:10;1.17;;;1.07;;
12385;SDS011;6257;57.634;18.310;2022-12-11T03:45:38;2.37;;;1.00;;
12385;SDS011;6257;57.634;18.310;2022-12-11T03:48:08;1.30;;;0.97;;
12385;SDS011;6257;57.634;18.310;2022-12-11T03:50:37;1.37;;;0.93;;
12385;SDS011;6257;57.634;18.310;2022-12-11T03:53:06;1.23;;;1.13;;
12385;SDS011;6257;57.634;18.310;2022-12-11T03:55:33;1.50;;;1.00;;
12385;SDS011;6257;57.634;18.310;2022-12-11T03:58:02;1.77;;;1.30;;
12385;SDS011;6257;57.634;18.310;2022-12-11T04:00:30;1.63;;;1.20;;
12385;SDS011;6257;57.634;18.310;2022-12-11T04:02:58;2.10;;;1.13;;
12385;SDS011;6257;57.634;18.310;2022-12-11T04:05:44;1.77;;;1.20;;
12385;SDS011;6257;57.634;18.310;2022-12-11T04:08:12;1.40;;;1.10;;
12385;SDS011;6257;57.634;18.310;2022-12-11T04:10:40;1.70;;;0.90;;
12385;SDS011;6257;57.634;18.310;2022-12-11T04:13:07;1.67;;;1.10;;
12385;SDS011;6257;57.634;18.310;2022-12-11T04:15:35;1.43;;;1.20;;
12385;SDS011;6257;57.634;18.310;2022-12-11T04:18:03;1.20;;;1.10;;
12385;SDS011;6257;57.634;18.310;2022-12-11T04:20:49;1.53;;;1.20;;
12385;SDS011;6257;57.634;18.310;2022-12-11T04:23:36;1.00;;;0.90;;
12385;SDS011;6257;57.634;18.310;2022-12-11T04:26:20;1.30;;;1.00;;
12385;SDS011;6257;57.634;18.310;2022-12-11T04:28:48;1.17;;;1.00;;
12385;SDS011;6257;57.634;18.310;2022-12-11T04:31:17;1.00;;;0.93;;
12385;SDS011;6257;57.634;18.310;2022-12-11T04:33:46;1.97;;;1.30;;
12385;SDS011;6257;57.634;18.310;2022-12-11T04:36:14;1.10;;;1.00;;
12385;SDS011;6257;57.634;18.310;2022-12-11T04:38:42;1.10;;;1.00;;
12385;SDS011;6257;57.634;18.310;2022-12-11T04:41:09;1.43;;;1.00;;
12385;SDS011;6257;57.634;18.310;2022-12-11T04:43:38;0.93;;;0.83;;
12385;SDS011;6257;57.634;18.310;2022-12-11T04:46:06;1.27;;;1.07;;
12385;SDS011;6257;57.634;18.310;2022-12-11T04:48:36;1.00;;;0.87;;
12385;SDS011;6257;57.634;18.310;2022-12-11T04:51:04;1.83;;;1.20;;
12385;SDS011;6257;57.634;18.310;2022-12-11T04:53:34;1.50;;;0.90;;
12385;SDS011;6257;57.634;18.310;2022-12-11T04:56:03;1.13;;;0.93;;
12385;SDS011;6257;57.634;18.310;2022-12-11T04:58:31;3.10;;;1.30;;
12385;SDS011;6257;57.634;18.310;2022-12-11T05:00:59;0.97;;;0.87;;
12385;SDS011;6257;57.634;18.310;2022-12-11T05:03:31;1.23;;;1.10;;
12385;SDS011;6257;57.634;18.310;2022-12-11T05:05:58;1.30;;;1.10;;
12385;SDS011;6257;57.634;18.310;2022-12-11T05:08:26;1.17;;;1.07;;
12385;SDS011;6257;57.634;18.310;2022-12-11T05:10:57;1.77;;;1.07;;
12385;SDS011;6257;57.634;18.310;2022-12-11T05:13:26;2.03;;;0.93;;
12385;SDS011;6257;57.634;18.310;2022-12-11T05:15:54;1.20;;;1.10;;
12385;SDS011;6257;57.634;18.310;2022-12-11T05:18:22;1.27;;;1.00;;
12385;SDS011;6257;57.634;18.310;2022-12-11T05:20:53;1.13;;;1.03;;
12385;SDS011;6257;57.634;18.310;2022-12-11T05:23:22;1.73;;;1.10;;
12385;SDS011;6257;57.634;18.310;2022-12-11T05:25:52;1.30;;;1.00;;
12385;SDS011;6257;57.634;18.310;2022-12-11T05:28:22;3.47;;;1.20;;
12385;SDS011;6257;57.634;18.310;2022-12-11T05:30:53;1.63;;;1.40;;
12385;SDS011;6257;57.634;18.310;2022-12-11T05:33:21;0.90;;;0.90;;
12385;SDS011;6257;57.634;18.310;2022-12-11T05:35:49;1.27;;;1.00;;
12385;SDS011;6257;57.634;18.310;2022-12-11T05:38:16;1.50;;;1.10;;
12385;SDS011;6257;57.634;18.310;2022-12-11T05:40:44;1.30;;;1.00;;
12385;SDS011;6257;57.634;18.310;2022-12-11T05:43:21;2.87;;;1.00;;
12385;SDS011;6257;57.634;18.310;2022-12-11T05:45:48;1.20;;;1.10;;
12385;SDS011;6257;57.634;18.310;2022-12-11T05:48:15;1.23;;;1.07;;
12385;SDS011;6257;57.634;18.310;2022-12-11T05:50:42;2.27;;;1.10;;
12385;SDS011;6257;57.634;18.310;2022-12-11T05:53:09;2.80;;;1.20;;
12385;SDS011;6257;57.634;18.310;2022-12-11T05:55:37;1.20;;;1.10;;
12385;SDS011;6257;57.634;18.310;2022-12-11T05:58:04;1.47;;;1.10;;
12385;SDS011;6257;57.634;18.310;2022-12-11T06:00:32;2.30;;;1.00;;
12385;SDS011;6257;57.634;18.310;2022-12-11T06:02:59;1.17;;;1.03;;
12385;SDS011;6257;57.634;18.310;2022-12-11T06:05:27;1.10;;;1.00;;
12385;SDS011;6257;57.634;18.310;2022-12-11T06:07:53;0.80;;;0.73;;
12385;SDS011;6257;57.634;18.310;2022-12-11T06:10:20;1.13;;;1.03;;
12385;SDS011;6257;57.634;18.310;2022-12-11T06:12:48;2.10;;;0.80;;
12385;SDS011;6257;57.634;18.310;2022-12-11T06:15:15;1.33;;;1.00;;
12385;SDS011;6257;57.634;18.310;2022-12-11T06:17:43;1.53;;;0.90;;
12385;SDS011;6257;57.634;18.310;2022-12-11T06:20:10;1.00;;;0.90;;
12385;SDS011;6257;57.634;18.310;2022-12-11T06:22:37;1.73;;;1.20;;
12385;SDS011;6257;57.634;18.310;2022-12-11T06:25:05;1.50;;;1.10;;
12385;SDS011;6257;57.634;18.310;2022-12-11T06:27:32;1.30;;;1.07;;
12385;SDS011;6257;57.634;18.310;2022-12-11T06:29:59;2.20;;;1.30;;
12385;SDS011;6257;57.634;18.310;2022-12-11T06:32:27;2.20;;;1.20;;
12385;SDS011;6257;57.634;18.310;2022-12-11T06:34:55;1.17;;;1.07;;
12385;SDS011;6257;57.634;18.310;2022-12-11T06:37:22;1.33;;;1.10;;
12385;SDS011;6257;57.634;18.310;2022-12-11T06:39:49;1.27;;;1.13;;
12385;SDS011;6257;57.634;18.310;2022-12-11T06:42:16;1.37;;;1.00;;
12385;SDS011;6257;57.634;18.310;2022-12-11T06:44:43;1.67;;;1.23;;
12385;SDS011;6257;57.634;18.310;2022-12-11T06:47:10;1.60;;;1.03;;
12385;SDS011;6257;57.634;18.310;2022-12-11T06:49:37;1.10;;;1.00;;
12385;SDS011;6257;57.634;18.310;2022-12-11T06:52:06;1.60;;;1.13;;
12385;SDS011;6257;57.634;18.310;2022-12-11T06:54:33;2.87;;;1.17;;
12385;SDS011;6257;57.634;18.310;2022-12-11T06:57:00;1.57;;;1.00;;
12385;SDS011;6257;57.634;18.310;2022-12-11T06:59:27;2.00;;;0.83;;
12385;SDS011;6257;57.634;18.310;2022-12-11T07:01:55;4.37;;;1.33;;
12385;SDS011;6257;57.634;18.310;2022-12-11T07:04:22;1.27;;;1.00;;
12385;SDS011;6257;57.634;18.310;2022-12-11T07:06:51;1.67;;;1.10;;
12385;SDS011;6257;57.634;18.310;2022-12-11T07:09:20;2.20;;;1.17;;
12385;SDS011;6257;57.634;18.310;2022-12-11T07:11:48;1.30;;;1.07;;
12385;SDS011;6257;57.634;18.310;2022-12-11T07:14:15;1.10;;;1.00;;
12385;SDS011;6257;57.634;18.310;2022-12-11T07:16:42;1.47;;;1.03;;
12385;SDS011;6257;57.634;18.310;2022-12-11T07:19:09;1.40;;;1.30;;
12385;SDS011;6257;57.634;18.310;2022-12-11T07:21:36;1.67;;;1.20;;
12385;SDS011;6257;57.634;18.310;2022-12-11T07:24:03;1.40;;;1.00;;
12385;SDS011;6257;57.634;18.310;2022-12-11T07:26:33;1.40;;;1.30;;
12385;SDS011;6257;57.634;18.310;2022-12-11T07:29:00;1.40;;;1.10;;
12385;SDS011;6257;57.634;18.310;2022-12-11T07:31:28;1.17;;;1.00;;
12385;SDS011;6257;57.634;18.310;2022-12-11T07:33:56;1.30;;;1.00;;
12385;SDS011;6257;57.634;18.310;2022-12-11T07:36:25;1.47;;;1.20;;
12385;SDS011;6257;57.634;18.310;2022-12-11T07:38:52;1.30;;;1.00;;
12385;SDS011;6257;57.634;18.310;2022-12-11T07:41:20;2.00;;;1.00;;
12385;SDS011;6257;57.634;18.310;2022-12-11T07:43:49;1.30;;;1.10;;
12385;SDS011;6257;57.634;18.310;2022-12-11T07:46:18;1.93;;;1.10;;
12385;SDS011;6257;57.634;18.310;2022-12-11T07:48:47;1.23;;;1.13;;
12385;SDS011;6257;57.634;18.310;2022-12-11T07:51:16;2.50;;;1.17;;
12385;SDS011;6257;57.634;18.310;2022-12-11T07:53:47;0.90;;;0.90;;
12385;SDS011;6257;57.634;18.310;2022-12-11T07:56:15;1.40;;;1.30;;
12385;SDS011;6257;57.634;18.310;2022-12-11T07:58:43;1.60;;;1.03;;
12385;SDS011;6257;57.634;18.310;2022-12-11T08:01:14;1.10;;;1.00;;
12385;SDS011;6257;57.634;18.310;2022-12-11T08:03:42;1.30;;;1.03;;
12385;SDS011;6257;57.634;18.310;2022-12-11T08:06:10;1.10;;;1.00;;
12385;SDS011;6257;57.634;18.310;2022-12-11T08:08:37;1.83;;;1.73;;
12385;SDS011;6257;57.634;18.310;2022-12-11T08:11:06;1.30;;;1.10;;
12385;SDS011;6257;57.634;18.310;2022-12-11T08:13:35;1.20;;;1.03;;
12385;SDS011;6257;57.634;18.310;2022-12-11T08:16:02;2.60;;;1.30;;
12385;SDS011;6257;57.634;18.310;2022-12-11T08:18:31;1.70;;;1.37;;
12385;SDS011;6257;57.634;18.310;2022-12-11T08:21:03;1.63;;;1.53;;
12385;SDS011;6257;57.634;18.310;2022-12-11T08:23:31;1.80;;;1.20;;
12385;SDS011;6257;57.634;18.310;2022-12-11T08:25:58;1.93;;;1.13;;
12385;SDS011;6257;57.634;18.310;2022-12-11T08:28:28;1.40;;;1.30;;
12385;SDS011;6257;57.634;18.310;2022-12-11T08:30:56;2.90;;;1.40;;
12385;SDS011;6257;57.634;18.310;2022-12-11T08:33:23;1.63;;;1.47;;
12385;SDS011;6257;57.634;18.310;2022-12-11T08:35:52;2.07;;;1.50;;
12385;SDS011;6257;57.634;18.310;2022-12-11T08:38:19;3.07;;;1.50;;
12385;SDS011;6257;57.634;18.310;2022-12-11T08:40:46;2.07;;;1.67;;
12385;SDS011;6257;57.634;18.310;2022-12-11T08:43:13;2.83;;;2.20;;
12385;SDS011;6257;57.634;18.310;2022-12-11T08:45:40;3.17;;;1.63;;
12385;SDS011;6257;57.634;18.310;2022-12-11T08:48:07;4.57;;;2.53;;
12385;SDS011;6257;57.634;18.310;2022-12-11T08:50:35;3.90;;;2.97;;
12385;SDS011;6257;57.634;18.310;2022-12-11T08:53:04;2.40;;;1.90;;
12385;SDS011;6257;57.634;18.310;2022-12-11T08:55:31;2.33;;;1.60;;
12385;SDS011;6257;57.634;18.310;2022-12-11T08:57:58;1.70;;;1.40;;
12385;SDS011;6257;57.634;18.310;2022-12-11T09:00:26;1.67;;;1.40;;
12385;SDS011;6257;57.634;18.310;2022-12-11T09:02:53;6.93;;;3.63;;
12385;SDS011;6257;57.634;18.310;2022-12-11T09:05:20;2.43;;;1.70;;
12385;SDS011;6257;57.634;18.310;2022-12-11T09:07:47;1.77;;;1.13;;
12385;SDS011;6257;57.634;18.310;2022-12-11T09:10:15;1.53;;;1.00;;
12385;SDS011;6257;57.634;18.310;2022-12-11T09:12:42;2.83;;;1.37;;
12385;SDS011;6257;57.634;18.310;2022-12-11T09:15:10;1.50;;;1.30;;
12385;SDS011;6257;57.634;18.310;2022-12-11T09:17:37;1.10;;;0.90;;
12385;SDS011;6257;57.634;18.310;2022-12-11T09:20:04;1.40;;;1.10;;
12385;SDS011;6257;57.634;18.310;2022-12-11T09:22:32;1.80;;;1.40;;
12385;SDS011;6257;57.634;18.310;2022-12-11T09:24:59;1.43;;;1.20;;
12385;SDS011;6257;57.634;18.310;2022-12-11T09:27:28;1.97;;;1.23;;
12385;SDS011;6257;57.634;18.310;2022-12-11T09:29:55;1.40;;;1.07;;
12385;SDS011;6257;57.634;18.310;2022-12-11T09:32:22;1.33;;;1.00;;
12385;SDS011;6257;57.634;18.310;2022-12-11T09:34:49;1.83;;;1.23;;
12385;SDS011;6257;57.634;18.310;2022-12-11T09:37:16;1.40;;;1.10;;
12385;SDS011;6257;57.634;18.310;2022-12-11T09:39:44;1.57;;;0.80;;
12385;SDS011;6257;57.634;18.310;2022-12-11T09:42:12;1.20;;;0.90;;
12385;SDS011;6257;57.634;18.310;2022-12-11T09:44:46;1.53;;;1.10;;
12385;SDS011;6257;57.634;18.310;2022-12-11T09:47:18;1.83;;;1.30;;
12385;SDS011;6257;57.634;18.310;2022-12-11T09:49:49;1.83;;;1.07;;
12385;SDS011;6257;57.634;18.310;2022-12-11T09:52:21;1.80;;;1.40;;
12385;SDS011;6257;57.634;18.310;2022-12-11T09:54:56;2.10;;;1.30;;
12385;SDS011;6257;57.634;18.310;2022-12-11T09:57:27;6.33;;;2.40;;
12385;SDS011;6257;57.634;18.310;2022-12-11T10:00:08;5.60;;;1.83;;
12385;SDS011;6257;57.634;18.310;2022-12-11T10:02:45;1.90;;;0.90;;
12385;SDS011;6257;57.634;18.310;2022-12-11T10:05:26;1.37;;;0.87;;
12385;SDS011;6257;57.634;18.310;2022-12-11T10:08:00;1.10;;;0.97;;
12385;SDS011;6257;57.634;18.310;2022-12-11T10:10:37;2.70;;;1.10;;
12385;SDS011;6257;57.634;18.310;2022-12-11T10:13:11;1.40;;;0.90;;
12385;SDS011;6257;57.634;18.310;2022-12-11T10:15:53;2.00;;;0.90;;
12385;SDS011;6257;57.634;18.310;2022-12-11T10:18:24;2.23;;;1.20;;
12385;SDS011;6257;57.634;18.310;2022-12-11T10:20:53;1.00;;;0.90;;
12385;SDS011;6257;57.634;18.310;2022-12-11T10:23:21;1.00;;;0.93;;
12385;SDS011;6257;57.634;18.310;2022-12-11T10:25:56;0.83;;;0.70;;
12385;SDS011;6257;57.634;18.310;2022-12-11T10:28:29;1.47;;;0.97;;
12385;SDS011;6257;57.634;18.310;2022-12-11T10:31:00;1.03;;;0.90;;
12385;SDS011;6257;57.634;18.310;2022-12-11T10:33:38;1.00;;;0.70;;
12385;SDS011;6257;57.634;18.310;2022-12-11T10:36:14;1.23;;;0.90;;
12385;SDS011;6257;57.634;18.310;2022-12-11T10:38:49;1.00;;;0.80;;
12385;SDS011;6257;57.634;18.310;2022-12-11T10:41:17;1.23;;;1.00;;
12385;SDS011;6257;57.634;18.310;2022-12-11T10:43:46;1.60;;;0.83;;
12385;SDS011;6257;57.634;18.310;2022-12-11T10:46:16;0.77;;;0.77;;
12385;SDS011;6257;57.634;18.310;2022-12-11T10:48:45;0.93;;;0.83;;
12385;SDS011;6257;57.634;18.310;2022-12-11T10:51:13;1.10;;;0.73;;
12385;SDS011;6257;57.634;18.310;2022-12-11T10:53:41;1.00;;;0.90;;
12385;SDS011;6257;57.634;18.310;2022-12-11T10:56:08;1.03;;;0.70;;
12385;SDS011;6257;57.634;18.310;2022-12-11T10:58:37;0.90;;;0.67;;
12385;SDS011;6257;57.634;18.310;2022-12-11T11:01:13;0.70;;;0.70;;
12385;SDS011;6257;57.634;18.310;2022-12-11T11:03:50;0.93;;;0.73;;
12385;SDS011;6257;57.634;18.310;2022-12-11T11:06:20;0.97;;;0.90;;
12385;SDS011;6257;57.634;18.310;2022-12-11T11:08:49;2.40;;;0.90;;
12385;SDS011;6257;57.634;18.310;2022-12-11T11:11:19;0.87;;;0.83;;
12385;SDS011;6257;57.634;18.310;2022-12-11T11:13:49;0.90;;;0.70;;
12385;SDS011;6257;57.634;18.310;2022-12-11T11:16:17;0.70;;;0.60;;
12385;SDS011;6257;57.634;18.310;2022-12-11T11:18:52;0.90;;;0.77;;
12385;SDS011;6257;57.634;18.310;2022-12-11T11:21:21;2.30;;;1.30;;
12385;SDS011;6257;57.634;18.310;2022-12-11T11:23:51;1.00;;;0.77;;
12385;SDS011;6257;57.634;18.310;2022-12-11T11:26:19;1.27;;;0.90;;
12385;SDS011;6257;57.634;18.310;2022-12-11T11:28:48;2.13;;;1.10;;
12385;SDS011;6257;57.634;18.310;2022-12-11T11:31:18;1.20;;;1.10;;
12385;SDS011;6257;57.634;18.310;2022-12-11T11:33:49;4.73;;;2.40;;
12385;SDS011;6257;57.634;18.310;2022-12-11T11:36:23;1.13;;;0.90;;
12385;SDS011;6257;57.634;18.310;2022-12-11T11:38:58;1.30;;;0.83;;
12385;SDS011;6257;57.634;18.310;2022-12-11T11:41:36;0.83;;;0.70;;
12385;SDS011;6257;57.634;18.310;2022-12-11T11:44:12;1.97;;;0.90;;
12385;SDS011;6257;57.634;18.310;2022-12-11T11:46:45;1.00;;;0.80;;
12385;SDS011;6257;57.634;18.310;2022-12-11T11:49:21;1.53;;;1.10;;
12385;SDS011;6257;57.634;18.310;2022-12-11T11:51:54;0.83;;;0.80;;
12385;SDS011;6257;57.634;18.310;2022-12-11T11:54:27;1.33;;;1.03;;
12385;SDS011;6257;57.634;18.310;2022-12-11T11:57:00;1.37;;;1.13;;
12385;SDS011;6257;57.634;18.310;2022-12-11T11:59:40;0.80;;;0.80;;
12385;SDS011;6257;57.634;18.310;2022-12-11T12:02:12;1.07;;;0.97;;
12385;SDS011;6257;57.634;18.310;2022-12-11T12:04:44;2.53;;;1.30;;
12385;SDS011;6257;57.634;18.310;2022-12-11T12:07:18;2.43;;;1.80;;
12385;SDS011;6257;57.634;18.310;2022-12-11T12:09:57;3.70;;;2.47;;
12385;SDS011;6257;57.634;18.310;2022-12-11T12:12:36;2.40;;;2.03;;
12385;SDS011;6257;57.634;18.310;2022-12-11T12:15:20;2.23;;;1.67;;
12385;SDS011;6257;57.634;18.310;2022-12-11T12:17:55;2.37;;;1.40;;
12385;SDS011;6257;57.634;18.310;2022-12-11T12:20:42;3.53;;;1.60;;
12385;SDS011;6257;57.634;18.310;2022-12-11T12:23:30;2.33;;;2.13;;
12385;SDS011;6257;57.634;18.310;2022-12-11T12:26:10;3.77;;;2.50;;
12385;SDS011;6257;57.634;18.310;2022-12-11T12:28:43;1.20;;;1.10;;
12385;SDS011;6257;57.634;18.310;2022-12-11T12:31:30;3.13;;;2.20;;
12385;SDS011;6257;57.634;18.310;2022-12-11T12:34:12;6.30;;;5.70;;
12385;SDS011;6257;57.634;18.310;2022-12-11T12:36:50;4.67;;;4.27;;
12385;SDS011;6257;57.634;18.310;2022-12-11T12:39:30;5.03;;;2.90;;
12385;SDS011;6257;57.634;18.310;2022-12-11T12:42:09;3.63;;;2.20;;
12385;SDS011;6257;57.634;18.310;2022-12-11T12:44:46;2.80;;;2.20;;
12385;SDS011;6257;57.634;18.310;2022-12-11T12:47:24;2.73;;;2.30;;
12385;SDS011;6257;57.634;18.310;2022-12-11T12:49:53;2.67;;;2.33;;
12385;SDS011;6257;57.634;18.310;2022-12-11T12:52:24;3.33;;;2.13;;
12385;SDS011;6257;57.634;18.310;2022-12-11T12:54:56;3.13;;;2.33;;
12385;SDS011;6257;57.634;18.310;2022-12-11T12:57:43;2.90;;;2.33;;
12385;SDS011;6257;57.634;18.310;2022-12-11T13:00:24;4.47;;;2.70;;
12385;SDS011;6257;57.634;18.310;2022-12-11T13:02:56;3.80;;;2.50;;
12385;SDS011;6257;57.634;18.310;2022-12-11T13:05:25;3.00;;;2.07;;
12385;SDS011;6257;57.634;18.310;2022-12-11T13:07:56;2.60;;;2.20;;
12385;SDS011;6257;57.634;18.310;2022-12-11T13:10:27;2.53;;;2.00;;
12385;SDS011;6257;57.634;18.310;2022-12-11T13:12:56;2.97;;;1.93;;
12385;SDS011;6257;57.634;18.310;2022-12-11T13:15:35;3.00;;;1.97;;
12385;SDS011;6257;57.634;18.310;2022-12-11T13:18:28;4.13;;;2.50;;
12385;SDS011;6257;57.634;18.310;2022-12-11T13:20:59;3.47;;;1.93;;
12385;SDS011;6257;57.634;18.310;2022-12-11T13:23:27;3.57;;;2.20;;
12385;SDS011;6257;57.634;18.310;2022-12-11T13:25:56;4.47;;;2.60;;
12385;SDS011;6257;57.634;18.310;2022-12-11T13:28:27;2.70;;;2.20;;
12385;SDS011;6257;57.634;18.310;2022-12-11T13:31:06;3.23;;;2.60;;
12385;SDS011;6257;57.634;18.310;2022-12-11T13:33:52;3.60;;;2.60;;
12385;SDS011;6257;57.634;18.310;2022-12-11T13:36:25;4.47;;;2.63;;
12385;SDS011;6257;57.634;18.310;2022-12-11T13:38:57;5.00;;;2.80;;
12385;SDS011;6257;57.634;18.310;2022-12-11T13:41:27;37.43;;;21.47;;
12385;SDS011;6257;57.634;18.310;2022-12-11T13:43:57;19.83;;;11.83;;
12385;SDS011;6257;57.634;18.310;2022-12-11T13:46:26;10.00;;;6.00;;
12385;SDS011;6257;57.634;18.310;2022-12-11T13:48:58;10.20;;;5.30;;
12385;SDS011;6257;57.634;18.310;2022-12-11T13:51:27;6.97;;;4.60;;
12385;SDS011;6257;57.634;18.310;2022-12-11T13:54:06;7.43;;;5.10;;
12385;SDS011;6257;57.634;18.310;2022-12-11T13:56:40;5.87;;;4.10;;
12385;SDS011;6257;57.634;18.310;2022-12-11T13:59:28;5.93;;;4.00;;
12385;SDS011;6257;57.634;18.310;2022-12-11T14:01:59;4.57;;;3.00;;
12385;SDS011;6257;57.634;18.310;2022-12-11T14:04:32;5.60;;;3.50;;
12385;SDS011;6257;57.634;18.310;2022-12-11T14:07:00;5.00;;;3.90;;
12385;SDS011;6257;57.634;18.310;2022-12-11T14:09:27;5.77;;;5.17;;
12385;SDS011;6257;57.634;18.310;2022-12-11T14:11:55;7.57;;;5.60;;
12385;SDS011;6257;57.634;18.310;2022-12-11T14:14:24;7.63;;;5.27;;
12385;SDS011;6257;57.634;18.310;2022-12-11T14:16:57;8.33;;;5.00;;
12385;SDS011;6257;57.634;18.310;2022-12-11T14:19:26;7.17;;;4.93;;
12385;SDS011;6257;57.634;18.310;2022-12-11T14:21:56;7.73;;;4.97;;
12385;SDS011;6257;57.634;18.310;2022-12-11T14:24:24;23.90;;;13.37;;
12385;SDS011;6257;57.634;18.310;2022-12-11T14:26:54;22.53;;;12.57;;
12385;SDS011;6257;57.634;18.310;2022-12-11T14:29:22;15.93;;;9.47;;
12385;SDS011;6257;57.634;18.310;2022-12-11T14:31:51;4.33;;;3.37;;
12385;SDS011;6257;57.634;18.310;2022-12-11T14:34:20;4.03;;;2.80;;
12385;SDS011;6257;57.634;18.310;2022-12-11T14:36:49;4.07;;;3.20;;
12385;SDS011;6257;57.634;18.310;2022-12-11T14:39:19;3.23;;;2.93;;
12385;SDS011;6257;57.634;18.310;2022-12-11T14:41:51;6.10;;;4.53;;
12385;SDS011;6257;57.634;18.310;2022-12-11T14:44:21;5.53;;;3.60;;
12385;SDS011;6257;57.634;18.310;2022-12-11T14:46:52;4.77;;;3.33;;
12385;SDS011;6257;57.634;18.310;2022-12-11T14:49:23;5.17;;;3.77;;
12385;SDS011;6257;57.634;18.310;2022-12-11T14:51:54;10.70;;;5.20;;
12385;SDS011;6257;57.634;18.310;2022-12-11T14:54:28;10.20;;;6.23;;
12385;SDS011;6257;57.634;18.310;2022-12-11T14:56:59;8.83;;;5.97;;
12385;SDS011;6257;57.634;18.310;2022-12-11T14:59:30;10.97;;;5.70;;
12385;SDS011;6257;57.634;18.310;2022-12-11T15:01:59;10.73;;;6.50;;
12385;SDS011;6257;57.634;18.310;2022-12-11T15:04:29;7.97;;;4.90;;
12385;SDS011;6257;57.634;18.310;2022-12-11T15:06:57;8.67;;;5.57;;